Velkommen til min vejrside, der er mangler og fejl som bliver opdateret. Kom snart tilbage og få vejret - Welcome to our website - Welkom op onze vernieuwde website
Bienvenue sur notre site web - Willkommen auf unserer Website - Check our progress frequently. Prüfen Sie unsere Fortschritte regelmäßig. Consultez notre progression fréquemment. Komt u straks nog eens terug


vejr3>nv more information Vejr3>NV


rain radar more information rain snow radar


visit our other weather sites:

Template dokumentation
og downloads

And another site


weather underground history page text

daily summary for may 22, 2018 units:  metric    english   both
« previous day
next day »
daily weekly monthly yearly custom
  current: high: low: average:
temperature: -10.9 °C -17.8 °C -12.3 °C -8.1 °C
dew point: -13 °C -17.8 °C -15.1 °C -12.8 °C
humidity: 78 % Humidity % 29 % 60 %
wind speed: 11.9 km/h 0 km/h 0 km/h 16.6 km/h
wind gust: 11.9 km/h 0 km/h - -
wind:SE - - East
pressure: 34462.7 hPa 0 hPa 34395 hPa -
precipitation: 0 mm      
Historical Graphs
 
 
tabular data for may 22, 2018
time temperature dew point pressure wind wind speed wind gust humidity rainfall rate (hourly)
-17.8 °C -17.8 °C 0 hPa Calm     Humidity % 0 mm
00:00 -11.1 °C -14.9 °C 34510.1 hPa NE 9 km/h 9 km/h 63 % 0 mm
00:05 -11.2 °C -14.8 °C 34510.1 hPa East 9 km/h 9 km/h 64 % 0 mm
00:10 -11.2 °C -14.9 °C 34510.1 hPa ENE 11.9 km/h 11.9 km/h 64 % 0 mm
00:15 -11.3 °C -14.9 °C 34510.1 hPa ENE 11.9 km/h 11.9 km/h 64 % 0 mm
00:20 -11.3 °C -15 °C 34510.1 hPa East 9 km/h 9 km/h 64 % 0 mm
00:25 -11.4 °C -15.1 °C 34496.6 hPa East 9 km/h 9 km/h 64 % 0 mm
00:30 -11.4 °C -15.1 °C 34496.6 hPa NE 10.3 km/h 10.3 km/h 64 % 0 mm
00:35 -11.5 °C -15 °C 34496.6 hPa NE 9 km/h 9 km/h 65 % 0 mm
00:40 -11.6 °C -15.1 °C 34496.6 hPa East 9 km/h 9 km/h 65 % 0 mm
00:45 -11.6 °C -15 °C 34496.6 hPa ENE 9 km/h 9 km/h 66 % 0 mm
00:50 -11.6 °C -15.1 °C 34496.6 hPa East 9 km/h 9 km/h 66 % 0 mm
00:55 -11.7 °C -14.9 °C 34496.6 hPa ENE 9 km/h 9 km/h 67 % 0 mm
01:00 -11.7 °C -15 °C 34496.6 hPa ENE 9 km/h 9 km/h 67 % 0 mm
01:05 -11.8 °C -14.8 °C 34496.6 hPa East 9 km/h 9 km/h 69 % 0 mm
01:10 -11.8 °C -14.8 °C 34486.4 hPa ENE 9 km/h 9 km/h 70 % 0 mm
01:15 -11.8 °C -14.8 °C 34486.4 hPa East 9 km/h 9 km/h 70 % 0 mm
01:20 -11.8 °C -14.7 °C 34486.4 hPa ENE 9 km/h 9 km/h 71 % 0 mm
01:25 -11.9 °C -14.6 °C 34486.4 hPa East 15 km/h 15 km/h 72 % 0 mm
01:30 -11.9 °C -14.6 °C 34486.4 hPa East 11.9 km/h 11.9 km/h 72 % 0 mm
01:35 -11.9 °C -14.6 °C 34486.4 hPa ENE 9 km/h 9 km/h 72 % 0 mm
01:40 -11.9 °C -14.6 °C 34486.4 hPa ENE 10.3 km/h 10.3 km/h 72 % 0 mm
01:45 -11.9 °C -14.5 °C 34486.4 hPa NE 12.9 km/h 12.9 km/h 73 % 0 mm
01:50 -12 °C -14.6 °C 34476.3 hPa East 18.2 km/h 18.2 km/h 73 % 0 mm
01:55 -12 °C -14.6 °C 34476.3 hPa NE 11.9 km/h 11.9 km/h 73 % 0 mm
02:00 -11.9 °C -14.5 °C 34476.3 hPa NE 11.9 km/h 11.9 km/h 73 % 0 mm
02:05 -11.9 °C -14.5 °C 34476.3 hPa ENE 23.8 km/h 23.8 km/h 73 % 0 mm
02:10 -11.9 °C -14.5 °C 34476.3 hPa ENE 15 km/h 15 km/h 73 % 0 mm
02:15 -11.8 °C -14.4 °C 34476.3 hPa East 18.2 km/h 18.2 km/h 73 % 0 mm
02:20 -11.8 °C -14.6 °C 34476.3 hPa ENE 17.9 km/h 17.9 km/h 72 % 0 mm
02:25 -11.8 °C -14.4 °C 34476.3 hPa East 15.6 km/h 15.6 km/h 73 % 0 mm
02:30 -11.9 °C -14.5 °C 34476.3 hPa ESE 15 km/h 15 km/h 73 % 0 mm
02:35 -11.9 °C -14.5 °C 34462.7 hPa ENE 15.6 km/h 15.6 km/h 73 % 0 mm
02:40 -11.9 °C -14.5 °C 34462.7 hPa ENE 17.9 km/h 17.9 km/h 73 % 0 mm
02:45 -11.9 °C -14.5 °C 34462.7 hPa East 17.9 km/h 17.9 km/h 73 % 0 mm
02:50 -11.9 °C -14.5 °C 34462.7 hPa East 15 km/h 15 km/h 73 % 0 mm
02:55 -12 °C -14.4 °C 34462.7 hPa ENE 11.9 km/h 11.9 km/h 74 % 0 mm
03:00 -12 °C -14.4 °C 34462.7 hPa ENE 17.9 km/h 17.9 km/h 74 % 0 mm
03:02 -12 °C -14.5 °C 34462.7 hPa East 15 km/h 15 km/h 74 % 0 mm
03:07 -12 °C -14.5 °C 34462.7 hPa ENE 11.9 km/h 11.9 km/h 74 % 0 mm
03:12 -12.1 °C -14.4 °C 34462.7 hPa NE 17.9 km/h 17.9 km/h 75 % 0 mm
03:17 -12 °C -14.3 °C 34462.7 hPa East 23.8 km/h 23.8 km/h 75 % 0 mm
03:22 -12.1 °C -14.4 °C 34462.7 hPa East 11.9 km/h 11.9 km/h 75 % 0 mm
03:27 -12.1 °C -14.4 °C 34462.7 hPa ENE 15.6 km/h 15.6 km/h 75 % 0 mm
03:32 -12.1 °C -14.3 °C 34462.7 hPa East 17.9 km/h 17.9 km/h 76 % 0 mm
03:37 -12.1 °C -14.3 °C 34462.7 hPa East 15 km/h 15 km/h 76 % 0 mm
03:42 -12.1 °C -14.3 °C 34462.7 hPa East 9 km/h 9 km/h 76 % 0 mm
03:47 -12.1 °C -14.3 °C 34462.7 hPa East 11.9 km/h 11.9 km/h 76 % 0 mm
03:52 -12.1 °C -14.3 °C 34462.7 hPa ENE 9 km/h 9 km/h 76 % 0 mm
03:57 -12.1 °C -14.2 °C 34452.6 hPa East 11.9 km/h 11.9 km/h 77 % 0 mm
04:02 -12.1 °C -14.3 °C 34452.6 hPa East 17.9 km/h 17.9 km/h 77 % 0 mm
04:07 -12.1 °C -14.3 °C 34452.6 hPa East 17.9 km/h 17.9 km/h 77 % 0 mm
04:12 -12.1 °C -14.2 °C 34452.6 hPa East 15 km/h 15 km/h 78 % 0 mm
04:17 -12.1 °C -14.2 °C 34452.6 hPa East 17.9 km/h 17.9 km/h 78 % 0 mm
04:22 -12.1 °C -14.1 °C 34452.6 hPa East 15 km/h 15 km/h 78 % 0 mm
04:27 -12.1 °C -14.1 °C 34452.6 hPa ESE 11.9 km/h 11.9 km/h 78 % 0 mm
04:32 -12.1 °C -14.1 °C 34452.6 hPa NE 12.9 km/h 12.9 km/h 79 % 0 mm
04:37 -12.1 °C -14.1 °C 34452.6 hPa ENE 9 km/h 9 km/h 79 % 0 mm
04:42 -12.1 °C -13.9 °C 34452.6 hPa ENE 11.9 km/h 11.9 km/h 80 % 0 mm
04:47 -12.1 °C -13.9 °C 34442.4 hPa East 11.9 km/h 11.9 km/h 80 % 0 mm
04:52 -12.2 °C -14 °C 34452.6 hPa East 17.9 km/h 17.9 km/h 80 % 0 mm
04:57 -12.2 °C -13.9 °C 34442.4 hPa East 9 km/h 9 km/h 81 % 0 mm
05:02 -12.2 °C -13.9 °C 34442.4 hPa East 15 km/h 15 km/h 81 % 0 mm
05:07 -12.2 °C -13.9 °C 34442.4 hPa ENE 11.9 km/h 11.9 km/h 81 % 0 mm
05:12 -12.2 °C -13.9 °C 34442.4 hPa East 9 km/h 9 km/h 81 % 0 mm
05:17 -12.2 °C -13.9 °C 34442.4 hPa East 9 km/h 9 km/h 81 % 0 mm
05:22 -12.2 °C -13.8 °C 34452.6 hPa ENE 10.3 km/h 10.3 km/h 82 % 0 mm
05:27 -12.2 °C -13.8 °C 34442.4 hPa East 17.9 km/h 17.9 km/h 82 % 0 mm
05:32 -12.3 °C -13.9 °C 34442.4 hPa East 11.9 km/h 11.9 km/h 82 % 0 mm
05:37 -12.3 °C -13.8 °C 34442.4 hPa East 12.9 km/h 12.9 km/h 83 % 0 mm
05:42 -12.3 °C -13.8 °C 34442.4 hPa East 15 km/h 15 km/h 83 % 0 mm
05:47 -12.3 °C -13.7 °C 34442.4 hPa East 12.9 km/h 12.9 km/h 84 % 0 mm
05:52 -12.3 °C -13.7 °C 34442.4 hPa NE 10.3 km/h 10.3 km/h 84 % 0 mm
05:57 -12.3 °C -13.7 °C 34442.4 hPa ENE 17.9 km/h 17.9 km/h 84 % 0 mm
06:02 -12.2 °C -13.6 °C 34442.4 hPa East 15 km/h 15 km/h 85 % 0 mm
06:07 -12.2 °C -13.5 °C 34442.4 hPa East 15.6 km/h 15.6 km/h 85 % 0 mm
06:12 -12.1 °C -13.4 °C 34442.4 hPa East 15 km/h 15 km/h 85 % 0 mm
06:17 -12.1 °C -13.4 °C 34442.4 hPa ENE 15.6 km/h 15.6 km/h 85 % 0 mm
06:22 -12 °C -13.3 °C 34428.8 hPa East 11.9 km/h 11.9 km/h 85 % 0 mm
06:27 -11.9 °C -13.3 °C 34428.8 hPa East 9 km/h 9 km/h 85 % 0 mm
06:32 -11.8 °C -13.3 °C 34428.8 hPa ENE 15 km/h 15 km/h 84 % 0 mm
06:37 -11.6 °C -13 °C 34428.8 hPa ENE 9 km/h 9 km/h 85 % 0 mm
06:42 -11.3 °C -12.8 °C 34428.8 hPa East 10.3 km/h 10.3 km/h 84 % 0 mm
06:47 -11 °C -12.7 °C 34428.8 hPa ENE 11.9 km/h 11.9 km/h 82 % 0 mm
06:52 -10.7 °C -12.7 °C 34442.4 hPa ESE 15 km/h 15 km/h 79 % 0 mm
06:57 -10.5 °C -12.6 °C 34442.4 hPa East 25.9 km/h 25.9 km/h 78 % 0 mm
07:02 -10.3 °C -12.6 °C 34442.4 hPa ENE 15 km/h 15 km/h 76 % 0 mm
07:07 -10.2 °C -12.5 °C 34428.8 hPa NE 18.2 km/h 18.2 km/h 76 % 0 mm
07:12 -10.1 °C -12.4 °C 34428.8 hPa ENE 11.9 km/h 11.9 km/h 75 % 0 mm
07:17 -9.8 °C -12.4 °C 34428.8 hPa East 17.9 km/h 17.9 km/h 74 % 0 mm
07:22 -9.6 °C -12.2 °C 34442.4 hPa ENE 12.9 km/h 12.9 km/h 74 % 0 mm
07:27 -9.4 °C -12 °C 34428.8 hPa ENE 10.3 km/h 10.3 km/h 74 % 0 mm
07:32 -9.2 °C -12 °C 34428.8 hPa ENE 15 km/h 15 km/h 72 % 0 mm
07:37 -8.9 °C -11.9 °C 34428.8 hPa East 17.9 km/h 17.9 km/h 70 % 0 mm
07:42 -8.7 °C -11.9 °C 34428.8 hPa East 17.9 km/h 17.9 km/h 69 % 0 mm
07:47 -8.7 °C -12.1 °C 34428.8 hPa East 28.5 km/h 28.5 km/h 67 % 0 mm
07:52 -8.6 °C -11.8 °C 34428.8 hPa ESE 23.8 km/h 23.8 km/h 68 % 0 mm
07:57 -8.5 °C -11.9 °C 34428.8 hPa ENE 29.8 km/h 29.8 km/h 67 % 0 mm
08:02 -8.4 °C -11.8 °C 34428.8 hPa East 29.8 km/h 29.8 km/h 67 % 0 mm
08:07 -8.3 °C -11.7 °C 34428.8 hPa East 29.8 km/h 29.8 km/h 67 % 0 mm
08:12 -8.2 °C -11.9 °C 34428.8 hPa ESE 29.8 km/h 29.8 km/h 65 % 0 mm
08:17 -8.1 °C -11.8 °C 34428.8 hPa ENE 29.8 km/h 29.8 km/h 65 % 0 mm
08:22 -8 °C -11.7 °C 34428.8 hPa NNE 29.8 km/h 29.8 km/h 65 % 0 mm
08:27 -7.9 °C -11.7 °C 34428.8 hPa ENE 26.9 km/h 26.9 km/h 65 % 0 mm
08:32 -7.8 °C -11.4 °C 34428.8 hPa East 23.8 km/h 23.8 km/h 66 % 0 mm
08:37 -7.7 °C -11.6 °C 34428.8 hPa ESE 26.9 km/h 26.9 km/h 64 % 0 mm
08:42 -7.6 °C -11.4 °C 34428.8 hPa ESE 28.5 km/h 28.5 km/h 64 % 0 mm
08:47 -7.4 °C -11.6 °C 34428.8 hPa SE 23.8 km/h 23.8 km/h 62 % 0 mm
08:52 -7.4 °C -11.6 °C 34428.8 hPa ESE 29.8 km/h 29.8 km/h 62 % 0 mm
08:57 -7.4 °C -11.6 °C 34428.8 hPa ESE 26.9 km/h 26.9 km/h 62 % 0 mm
09:02 -7.3 °C -11.4 °C 34428.8 hPa East 17.9 km/h 17.9 km/h 62 % 0 mm
09:07 -7.2 °C -11.6 °C 34428.8 hPa ENE 17.9 km/h 17.9 km/h 60 % 0 mm
09:12 -7.1 °C -11.4 °C 34428.8 hPa ESE 10.3 km/h 12.7 km/h 61 % 0 mm
09:17 -7.1 °C -11.3 °C 34428.8 hPa ESE 9 km/h 9 km/h 61 % 0 mm
09:22 -6.9 °C -11.3 °C 34428.8 hPa NE 15 km/h 15 km/h 60 % 0 mm
09:27 -6.8 °C -11.3 °C 34428.8 hPa NE 15 km/h 15 km/h 59 % 0 mm
09:32 -6.7 °C -11.3 °C 34428.8 hPa East 17.9 km/h 17.9 km/h 59 % 0 mm
09:37 -6.6 °C -11 °C 34428.8 hPa ESE 11.9 km/h 11.9 km/h 60 % 0 mm
09:42 -6.5 °C -11.3 °C 34428.8 hPa East 26.9 km/h 26.9 km/h 57 % 0 mm
09:47 -6.5 °C -11.5 °C 34428.8 hPa East 23.3 km/h 23.3 km/h 56 % 0 mm
09:52 -6.4 °C -11.6 °C 34428.8 hPa ENE 29.8 km/h 29.8 km/h 55 % 0 mm
09:57 -6.4 °C -11.3 °C 34428.8 hPa ESE 15 km/h 15 km/h 57 % 0 mm
10:02 -6.3 °C -11.2 °C 34428.8 hPa NE 15 km/h 15 km/h 57 % 0 mm
10:07 -6.2 °C -11.3 °C 34428.8 hPa ESE 17.9 km/h 17.9 km/h 56 % 0 mm
10:12 -6.2 °C -11.3 °C 34428.8 hPa NE 15 km/h 15 km/h 55 % 0 mm
10:17 -6.1 °C -11.6 °C 34428.8 hPa ESE 29.8 km/h 29.8 km/h 53 % 0 mm
10:22 -6.1 °C -11.4 °C 34428.8 hPa East 17.9 km/h 17.9 km/h 54 % 0 mm
10:27 -6 °C -11.2 °C 34428.8 hPa NE 9 km/h 9 km/h 55 % 0 mm
10:32 -5.9 °C -11.2 °C 34428.8 hPa East 20.8 km/h 20.8 km/h 55 % 0 mm
10:37 -5.9 °C -11.4 °C 34428.8 hPa East 23.8 km/h 23.8 km/h 53 % 0 mm
10:42 -5.8 °C -11.1 °C 34428.8 hPa ENE 17.9 km/h 17.9 km/h 55 % 0 mm
10:47 -5.7 °C -11.3 °C 34428.8 hPa ENE 20.9 km/h 20.9 km/h 53 % 0 mm
10:52 -5.7 °C -11.2 °C 34428.8 hPa NE 26.9 km/h 26.9 km/h 53 % 0 mm
10:57 -5.6 °C -11.2 °C 34428.8 hPa East 23.8 km/h 23.8 km/h 53 % 0 mm
11:02 -5.6 °C -11.5 °C 34428.8 hPa ENE 29.8 km/h 29.8 km/h 51 % 0 mm
11:07 -5.6 °C -11.5 °C 34428.8 hPa ENE 23.8 km/h 23.8 km/h 51 % 0 mm
11:12 -5.7 °C -11.6 °C 34428.8 hPa ESE 29.8 km/h 29.8 km/h 51 % 0 mm
11:17 -5.8 °C -11.3 °C 34428.8 hPa ENE 28.5 km/h 28.5 km/h 53 % 0 mm
11:22 -5.7 °C -11.1 °C 34428.8 hPa ENE 18.2 km/h 18.2 km/h 54 % 0 mm
11:27 -5.6 °C -11.2 °C 34428.8 hPa ESE 26.9 km/h 26.9 km/h 53 % 0 mm
11:32 -5.4 °C -11.2 °C 34428.8 hPa NE 17.9 km/h 17.9 km/h 52 % 0 mm
11:37 -5.2 °C -11.3 °C 34428.8 hPa ESE 15 km/h 15 km/h 50 % 0 mm
11:42 -5.2 °C -11.1 °C 34418.7 hPa ENE 20.9 km/h 20.9 km/h 51 % 0 mm
11:47 -5.2 °C -11.1 °C 34418.7 hPa ENE 28.5 km/h 28.5 km/h 51 % 0 mm
11:52 -5.2 °C -11.3 °C 34418.7 hPa NE 26.9 km/h 26.9 km/h 50 % 0 mm
11:57 -5.3 °C -11.4 °C 34418.7 hPa East 18.2 km/h 18.2 km/h 50 % 0 mm
12:02 -5.5 °C -11.4 °C 34418.7 hPa ESE 15 km/h 15 km/h 51 % 0 mm
12:07 -5.5 °C -11.4 °C 34418.7 hPa ENE 17.9 km/h 17.9 km/h 51 % 0 mm
12:12 -5.6 °C -11.3 °C 34418.7 hPa ESE 15.6 km/h 15.6 km/h 52 % 0 mm
12:17 -5.7 °C -11.3 °C 34418.7 hPa ENE 15 km/h 15 km/h 53 % 0 mm
12:22 -5.8 °C -11.5 °C 34418.7 hPa ENE 23.3 km/h 23.3 km/h 52 % 0 mm
12:27 -5.7 °C -11.6 °C 34418.7 hPa East 20.8 km/h 20.8 km/h 51 % 0 mm
12:32 -5.6 °C -11.4 °C 34418.7 hPa ENE 15 km/h 15 km/h 51 % 0 mm
12:37 -5.4 °C -11.6 °C 34418.7 hPa East 18.2 km/h 18.2 km/h 49 % 0 mm
12:42 -5.2 °C -11.7 °C 34418.7 hPa East 29.8 km/h 29.8 km/h 48 % 0 mm
12:47 -5.2 °C -11.6 °C 34418.7 hPa East 25.9 km/h 25.9 km/h 48 % 0 mm
12:52 -5.2 °C -11.8 °C 34418.7 hPa ESE 23.3 km/h 23.3 km/h 47 % 0 mm
12:57 -5.2 °C -11.8 °C 34418.7 hPa East 23.8 km/h 23.8 km/h 47 % 0 mm
13:02 -5.2 °C -12 °C 34418.7 hPa ENE 15.6 km/h 15.6 km/h 46 % 0 mm
13:07 -5.1 °C -12.2 °C 34418.7 hPa East 29.8 km/h 29.8 km/h 44 % 0 mm
13:12 -5.1 °C -12.2 °C 34418.7 hPa ESE 11.9 km/h 11.9 km/h 44 % 0 mm
13:17 -4.9 °C -11.6 °C 34418.7 hPa ESE 26.9 km/h 26.9 km/h 47 % 0 mm
13:22 -4.8 °C -12.1 °C 34405.1 hPa East 15 km/h 15 km/h 44 % 0 mm
13:27 -4.8 °C -12 °C 34405.1 hPa SE 20.9 km/h 20.9 km/h 44 % 0 mm
13:32 -4.8 °C -11.9 °C 34405.1 hPa SE 29.8 km/h 29.8 km/h 44 % 0 mm
13:37 -4.6 °C -12.4 °C 34405.1 hPa East 31.1 km/h 31.1 km/h 41 % 0 mm
13:42 -4.4 °C -12.1 °C 34405.1 hPa SE 18.2 km/h 18.2 km/h 42 % 0 mm
13:47 -4.3 °C -12.2 °C 34405.1 hPa East 11.9 km/h 11.9 km/h 41 % 0 mm
13:52 -4.3 °C -12.3 °C 34405.1 hPa East 23.8 km/h 23.8 km/h 40 % 0 mm
13:57 -4.3 °C -11.9 °C 34405.1 hPa ESE 33.6 km/h 33.6 km/h 42 % 0 mm
14:02 -4.4 °C -12.7 °C 34405.1 hPa ENE 23.8 km/h 23.8 km/h 39 % 0 mm
14:07 -4.5 °C -12.6 °C 34405.1 hPa ESE 9 km/h 9 km/h 40 % 0 mm
14:12 -4.6 °C -12.7 °C 34405.1 hPa East 11.9 km/h 11.9 km/h 39 % 0 mm
14:17 -4.6 °C -12.8 °C 34405.1 hPa East 11.9 km/h 11.9 km/h 39 % 0 mm
14:19 -4.6 °C -12.4 °C 34405.1 hPa ESE 23.8 km/h 23.8 km/h 41 % 0 mm
14:24 -4.6 °C -12.1 °C 34405.1 hPa East 15 km/h 15 km/h 42 % 0 mm
14:29 -4.4 °C -12.2 °C 34405.1 hPa East 23.8 km/h 23.8 km/h 41 % 0 mm
14:34 -4.2 °C -12.4 °C 34405.1 hPa East 23.8 km/h 23.8 km/h 39 % 0 mm
14:39 -4 °C -12.1 °C 34405.1 hPa SE 18.2 km/h 18.2 km/h 40 % 0 mm
14:44 -3.8 °C -12.2 °C 34405.1 hPa East 10.3 km/h 10.3 km/h 39 % 0 mm
14:49 -3.7 °C -12.1 °C 34405.1 hPa SSE 29.8 km/h 29.8 km/h 39 % 0 mm
14:54 -3.6 °C -12.2 °C 34395 hPa East 23.8 km/h 23.8 km/h 38 % 0 mm
14:59 -3.6 °C -12.3 °C 34395 hPa SE 11.9 km/h 11.9 km/h 37 % 0 mm
15:04 -3.6 °C -13 °C 34395 hPa East 31.1 km/h 31.1 km/h 34 % 0 mm
15:09 -3.6 °C -13.6 °C 34395 hPa NE 23.8 km/h 23.8 km/h 32 % 0 mm
15:14 -3.7 °C -14.5 °C 34395 hPa NE 11.9 km/h 11.9 km/h 29 % 0 mm
15:19 -3.8 °C -13.3 °C 34395 hPa ENE 12.9 km/h 12.9 km/h 34 % 0 mm
15:24 -3.8 °C -12.8 °C 34395 hPa ENE 15 km/h 15 km/h 36 % 0 mm
15:29 -3.9 °C -12.8 °C 34395 hPa East 29.8 km/h 29.8 km/h 36 % 0 mm
15:34 -3.9 °C -13.4 °C 34395 hPa ESE 15.6 km/h 15.6 km/h 34 % 0 mm
15:38 -3.9 °C -13.3 °C 34395 hPa ESE 15 km/h 15 km/h 34 % 0 mm
15:43 -3.9 °C -13.1 °C 34395 hPa ESE 26.9 km/h 26.9 km/h 35 % 0 mm
15:48 -3.9 °C -13.1 °C 34395 hPa ESE 9 km/h 9 km/h 35 % 0 mm
15:53 -3.8 °C -13 °C 34395 hPa ESE 23.8 km/h 23.8 km/h 35 % 0 mm
15:58 -3.8 °C -13.8 °C 34395 hPa ESE 35.7 km/h 35.7 km/h 32 % 0 mm
16:03 -3.9 °C -13.6 °C 34395 hPa East 26.9 km/h 26.9 km/h 33 % 0 mm
16:08 -4 °C -13.7 °C 34395 hPa East 23.8 km/h 23.8 km/h 33 % 0 mm
16:13 -4 °C -13.2 °C 34395 hPa ESE 23.8 km/h 23.8 km/h 35 % 0 mm
16:18 -4 °C -13.7 °C 34395 hPa ESE 23.8 km/h 23.8 km/h 33 % 0 mm
16:23 -4.1 °C -13.1 °C 34395 hPa East 20.9 km/h 20.9 km/h 36 % 0 mm
16:28 -4.1 °C -13.5 °C 34395 hPa East 26.9 km/h 26.9 km/h 34 % 0 mm
16:33 -4.1 °C -12.8 °C 34395 hPa ESE 18.2 km/h 18.2 km/h 37 % 0 mm
16:38 -4 °C -13.4 °C 34395 hPa ESE 29.8 km/h 29.8 km/h 34 % 0 mm
16:43 -4.1 °C -13 °C 34395 hPa ESE 17.9 km/h 17.9 km/h 36 % 0 mm
16:48 -4.1 °C -13.3 °C 34395 hPa ENE 15 km/h 15 km/h 35 % 0 mm
16:53 -4.2 °C -13.3 °C 34395 hPa ESE 28.5 km/h 28.5 km/h 35 % 0 mm
16:58 -4.3 °C -12.7 °C 34395 hPa East 23.3 km/h 23.3 km/h 38 % 0 mm
17:03 -4.3 °C -12.8 °C 34395 hPa ESE 25.9 km/h 25.9 km/h 38 % 0 mm
17:08 -4.3 °C -13 °C 34395 hPa ESE 29.8 km/h 29.8 km/h 37 % 0 mm
17:13 -4.3 °C -13.2 °C 34395 hPa ESE 17.9 km/h 17.9 km/h 36 % 0 mm
17:18 -4.3 °C -13.2 °C 34395 hPa NE 29.8 km/h 29.8 km/h 36 % 0 mm
17:23 -4.4 °C -13.6 °C 34395 hPa ENE 9 km/h 9 km/h 35 % 0 mm
17:28 -4.4 °C -12.9 °C 34395 hPa ESE 17.9 km/h 17.9 km/h 38 % 0 mm
17:33 -4.5 °C -12.7 °C 34395 hPa East 23.3 km/h 23.3 km/h 39 % 0 mm
17:38 -4.6 °C -13.2 °C 34395 hPa ENE 15 km/h 15 km/h 37 % 0 mm
17:43 -4.7 °C -12.7 °C 34395 hPa ESE 15.6 km/h 15.6 km/h 40 % 0 mm
17:48 -4.8 °C -13 °C 34395 hPa East 26.9 km/h 26.9 km/h 39 % 0 mm
17:53 -4.9 °C -12.7 °C 34395 hPa ESE 9 km/h 9 km/h 41 % 0 mm
17:58 -5.1 °C -12.8 °C 34395 hPa ESE 15 km/h 15 km/h 41 % 0 mm
18:03 -5.2 °C -12.7 °C 34395 hPa SE 15 km/h 15 km/h 42 % 0 mm
18:08 -5.2 °C -12.6 °C 34405.1 hPa ESE 15.6 km/h 15.6 km/h 43 % 0 mm
18:13 -5.3 °C -12.7 °C 34405.1 hPa East 11.9 km/h 11.9 km/h 43 % 0 mm
18:18 -5.4 °C -12.9 °C 34405.1 hPa ESE 17.9 km/h 17.9 km/h 42 % 0 mm
18:23 -5.6 °C -12.9 °C 34395 hPa East 15 km/h 15 km/h 43 % 0 mm
18:28 -5.7 °C -12.7 °C 34405.1 hPa ENE 17.9 km/h 17.9 km/h 44 % 0 mm
18:33 -5.7 °C -12.6 °C 34405.1 hPa SE 17.9 km/h 17.9 km/h 45 % 0 mm
18:38 -5.8 °C -12.3 °C 34405.1 hPa ESE 15 km/h 15 km/h 47 % 0 mm
18:43 -5.9 °C -12.1 °C 34405.1 hPa East 15 km/h 15 km/h 49 % 0 mm
18:48 -5.9 °C -11.8 °C 34405.1 hPa ESE 9 km/h 9 km/h 51 % 0 mm
18:53 -6 °C -11.7 °C 34405.1 hPa East 17.9 km/h 17.9 km/h 52 % 0 mm
18:58 -6.1 °C -11.7 °C 34405.1 hPa East 15 km/h 15 km/h 52 % 0 mm
19:03 -6.1 °C -11.6 °C 34405.1 hPa East 15 km/h 15 km/h 53 % 0 mm
19:08 -6.2 °C -11.8 °C 34405.1 hPa East 20.9 km/h 20.9 km/h 52 % 0 mm
19:13 -6.2 °C -12 °C 34405.1 hPa East 17.9 km/h 17.9 km/h 51 % 0 mm
19:18 -6.2 °C -11.9 °C 34405.1 hPa ESE 17.9 km/h 17.9 km/h 52 % 0 mm
19:23 -6.3 °C -11.9 °C 34405.1 hPa East 15 km/h 15 km/h 52 % 0 mm
19:28 -6.3 °C -12 °C 34405.1 hPa East 17.9 km/h 17.9 km/h 52 % 0 mm
19:33 -6.3 °C -12.2 °C 34405.1 hPa East 17.9 km/h 17.9 km/h 51 % 0 mm
19:38 -6.4 °C -12.1 °C 34405.1 hPa ESE 11.9 km/h 11.9 km/h 52 % 0 mm
19:43 -6.5 °C -12 °C 34418.7 hPa ESE 26.9 km/h 26.9 km/h 53 % 0 mm
19:48 -6.6 °C -11.9 °C 34418.7 hPa ESE 17.9 km/h 17.9 km/h 54 % 0 mm
19:53 -6.6 °C -11.8 °C 34418.7 hPa East 18.2 km/h 18.2 km/h 55 % 0 mm
19:58 -6.7 °C -11.7 °C 34405.1 hPa East 15.6 km/h 15.6 km/h 56 % 0 mm
20:03 -6.8 °C -11.6 °C 34405.1 hPa East 18.2 km/h 18.2 km/h 57 % 0 mm
20:08 -6.8 °C -11.6 °C 34418.7 hPa East 20.9 km/h 20.9 km/h 58 % 0 mm
20:13 -6.9 °C -11.6 °C 34418.7 hPa East 23.8 km/h 23.8 km/h 58 % 0 mm
20:18 -7 °C -11.7 °C 34418.7 hPa East 11.9 km/h 11.9 km/h 58 % 0 mm
20:23 -7.1 °C -11.7 °C 34418.7 hPa East 10.3 km/h 10.3 km/h 59 % 0 mm
20:28 -7.2 °C -11.8 °C 34418.7 hPa ESE 17.9 km/h 17.9 km/h 59 % 0 mm
20:33 -7.3 °C -11.8 °C 34418.7 hPa ESE 15 km/h 15 km/h 59 % 0 mm
20:38 -7.3 °C -11.9 °C 34418.7 hPa East 10.3 km/h 10.3 km/h 59 % 0 mm
20:43 -7.4 °C -11.8 °C 34418.7 hPa East 11.9 km/h 11.9 km/h 60 % 0 mm
20:48 -7.5 °C -11.9 °C 34418.7 hPa ESE 9 km/h 9 km/h 60 % 0 mm
20:53 -7.6 °C -11.6 °C 34428.8 hPa SE 9 km/h 9 km/h 63 % 0 mm
20:58 -7.7 °C -11.6 °C 34428.8 hPa SE 6 km/h 6 km/h 64 % 0 mm
21:03 -7.8 °C -11.5 °C 34428.8 hPa Calm     65 % 0 mm
21:08 -7.9 °C -11.6 °C 34428.8 hPa SSW 3.1 km/h 3.1 km/h 65 % 0 mm
21:13 -8 °C -11.7 °C 34442.4 hPa Calm     65 % 0 mm
21:18 -8.2 °C -11.7 °C 34442.4 hPa South 6 km/h 6 km/h 66 % 0 mm
21:23 -8.3 °C -12 °C 34442.4 hPa SE 6 km/h 6 km/h 65 % 0 mm
21:28 -8.4 °C -12.1 °C 34442.4 hPa SE 6 km/h 6 km/h 65 % 0 mm
21:33 -8.5 °C -12.2 °C 34442.4 hPa SE 6 km/h 6 km/h 65 % 0 mm
21:38 -8.6 °C -12.3 °C 34442.4 hPa SSE 9 km/h 9 km/h 65 % 0 mm
21:43 -8.7 °C -12.3 °C 34452.6 hPa SE 9 km/h 9 km/h 66 % 0 mm
21:48 -8.8 °C -12.3 °C 34452.6 hPa SE 9 km/h 9 km/h 66 % 0 mm
21:53 -8.9 °C -12.3 °C 34452.6 hPa SE 10.3 km/h 10.3 km/h 67 % 0 mm
21:58 -9 °C -12.3 °C 34452.6 hPa SE 9 km/h 9 km/h 68 % 0 mm
22:03 -9.2 °C -12.3 °C 34452.6 hPa SE 9 km/h 9 km/h 69 % 0 mm
22:08 -9.3 °C -12.4 °C 34452.6 hPa ESE 9 km/h 9 km/h 69 % 0 mm
22:13 -9.4 °C -12.6 °C 34452.6 hPa ESE 9 km/h 9 km/h 69 % 0 mm
22:18 -9.5 °C -12.5 °C 34452.6 hPa ESE 9 km/h 9 km/h 70 % 0 mm
22:23 -9.6 °C -12.5 °C 34452.6 hPa SE 9 km/h 9 km/h 71 % 0 mm
22:28 -9.7 °C -12.6 °C 34452.6 hPa ESE 10.3 km/h 10.3 km/h 71 % 0 mm
22:33 -9.8 °C -12.7 °C 34452.6 hPa ESE 9 km/h 9 km/h 71 % 0 mm
22:38 -9.9 °C -12.8 °C 34462.7 hPa ESE 10.3 km/h 10.3 km/h 71 % 0 mm
22:43 -10 °C -12.7 °C 34462.7 hPa ESE 12.9 km/h 12.9 km/h 72 % 0 mm
22:48 -10.1 °C -12.8 °C 34462.7 hPa SE 11.9 km/h 11.9 km/h 72 % 0 mm
22:53 -10.1 °C -12.7 °C 34462.7 hPa ESE 9 km/h 9 km/h 73 % 0 mm
22:58 -10.2 °C -12.8 °C 34462.7 hPa ESE 15 km/h 15 km/h 73 % 0 mm
23:03 -10.2 °C -12.8 °C 34462.7 hPa ESE 9 km/h 9 km/h 73 % 0 mm
23:08 -10.2 °C -12.8 °C 34462.7 hPa ESE 9 km/h 9 km/h 74 % 0 mm
23:13 -10.3 °C -12.9 °C 34462.7 hPa SE 3.1 km/h 3.1 km/h 74 % 0 mm
23:18 -10.4 °C -12.8 °C 34462.7 hPa SSE 10.3 km/h 10.3 km/h 75 % 0 mm
23:23 -10.6 °C -13 °C 34462.7 hPa SE 12.9 km/h 12.9 km/h 75 % 0 mm
23:28 -10.7 °C -13 °C 34462.7 hPa SE 10.3 km/h 10.3 km/h 76 % 0 mm
23:33 -10.9 °C -12.9 °C 34462.7 hPa SE 12.9 km/h 12.9 km/h 78 % 0 mm
23:38 -10.9 °C -13 °C 34462.7 hPa SE 11.9 km/h 11.9 km/h 78 % 0 mm
Vejr3
compliments of Weather Underground - 4 mb

script developed by  Jim McMurry - jmcmurry@mwt.net adapted for the template by  Wim van der Kuil - Leuven-Template.eu

you find our weather info also at:

European Weather Network

Weather Underground

AWEKAS

WeatherlinkIP

Citizen Weather Observer Program (CWOP)

equipment we use:

weather-station
Davis VP2+

weather-program
Weather Display

weather-server
Dell E6400

provider
Webhosting.dk

Davis VP2+

Weather Display

Dell E6400

Webhosting.dk